Latest Weather Observations for Combienbar

IDV60801

Issued at 5:02 pm EST Saturday 30 July 2016 (issued every 30 minutes, with the page automatically refreshed every 10 minutes)

About weather observations | Map of weather stations | Latest weather observations for VIC | Other Formats
Station Details ID: 084143 Name: COMBIENBAR AWS Lat: -37.34 Lon: 149.02 Height: 640.0 m
Data from the previous 72 hours. | See also: Recent months at Combienbar
Date/Time
EST
Temp
°C
App
Temp
°C
Dew
Point
°C
Rel
Hum
%
Delta-T
°C
Wind Press
QNH
hPa
Press
MSL
hPa
Rain since
9am
mm
Dir  Spd
km/h
Gust
km/h
Spd
kts
Gust
kts
30/05:00pm 9.3 7.8 3.1 65 2.8 CALM 0 0 0 0 1016.7 1017.2 0.0
30/04:30pm 9.8 8.4 3.3 64 2.9 CALM 0 0 0 0 1017.0 1017.5 0.0
30/04:00pm 11.3 9.9 3.8 60 3.5 CALM 0 0 0 0 1017.2 1017.7 0.0
30/03:30pm 12.3 10.9 3.8 56 4.0 CALM 0 0 0 0 1017.4 1017.9 0.0
30/03:00pm 12.2 10.7 2.9 53 4.2 CALM 0 4 0 2 1017.9 1018.4 0.0
30/02:30pm 12.5 10.3 3.5 54 4.2 ESE 4 7 2 4 1018.2 1018.7 0.0
30/02:00pm 12.6 10.9 4.1 56 4.0 SSE 2 6 1 3 1018.2 1018.7 0.0
30/01:30pm 11.9 10.5 3.4 56 3.9 CALM 0 0 0 0 1018.8 1019.3 0.0
30/01:00pm 12.6 11.2 3.8 55 4.1 CALM 0 2 0 1 1019.1 1019.7 0.0
30/12:30pm 12.1 10.6 2.8 53 4.2 CALM 0 4 0 2 1019.8 1020.3 0.0
30/12:00pm 11.4 9.5 2.9 56 3.8 S 2 6 1 3 1020.3 1020.9 0.0
30/11:30am 11.0 9.3 2.1 54 3.9 CALM 0 0 0 0 1020.8 1021.4 0.0
30/11:00am 11.3 9.3 2.1 53 4.1 N 2 7 1 4 1021.4 1021.9 0.0
30/10:30am 9.2 8.1 5.0 75 2.0 CALM 0 0 0 0 1021.6 1022.2 0.0
30/10:00am 8.5 7.4 5.1 79 1.6 CALM 0 0 0 0 1021.8 1022.4 0.0
30/09:30am 8.5 7.3 4.7 77 1.7 CALM 0 0 0 0 1021.9 1022.5 0.0
30/09:00am 8.0 6.9 5.3 83 1.2 CALM 0 0 0 0 1022.1 1022.7 0.0
30/08:30am 7.4 6.1 4.0 79 1.5 CALM 0 0 0 0 1022.0 1022.6 0.0
30/08:00am 6.5 5.1 3.7 82 1.2 CALM 0 4 0 2 1021.9 1022.5 0.0
30/07:30am 6.5 4.7 3.5 81 1.3 SW 2 6 1 3 1021.7 1022.3 0.0
30/07:00am 6.0 4.6 3.5 84 1.1 CALM 0 2 0 1 1021.6 1022.2 0.0
30/06:30am 6.3 4.5 3.3 81 1.3 SW 2 6 1 3 1021.3 1021.8 0.0
30/06:00am 6.5 4.6 3.1 79 1.5 SW 2 6 1 3 1021.2 1021.7 0.0
30/05:30am 7.0 4.3 2.9 75 1.8 SW 6 9 3 5 1020.9 1021.5 0.0
30/05:00am 7.3 5.0 2.6 72 2.0 SW 4 6 2 3 1020.7 1021.3 0.0
30/04:30am 7.1 5.2 3.0 75 1.8 SW 2 6 1 3 1020.5 1021.1 0.0
30/04:00am 6.7 4.9 3.5 80 1.4 SW 2 6 1 3 1020.4 1021.0 0.0
30/03:30am 7.6 5.8 3.3 74 1.9 SSW 2 6 1 3 1020.4 1021.0 0.0
30/03:00am 7.9 5.7 3.2 72 2.1 SW 4 13 2 7 1020.3 1020.9 0.0
30/02:30am 7.9 5.3 3.2 72 2.1 SW 6 13 3 7 1020.4 1021.0 0.0
30/02:00am 7.4 5.8 4.4 81 1.4 SW 2 7 1 4 1020.3 1020.9 0.0
30/01:30am 7.5 5.9 4.5 81 1.4 SW 2 11 1 6 1020.2 1020.8 0.0
30/01:00am 6.5 5.3 4.5 87 0.9 CALM 0 2 0 1 1020.1 1020.6 0.0
30/12:30am 7.0 5.9 5.0 87 0.9 CALM 0 0 0 0 1020.2 1020.8 0.0
30/12:00am 7.5 6.4 5.1 85 1.1 CALM 0 2 0 1 1020.3 1020.9 0.0
 
Date/Time
EST
Temp
°C
App
Temp
°C
Dew
Point
°C
Rel
Hum
%
Delta-T
°C
Wind Press
QNH
hPa
Press
MSL
hPa
Rain since
9am
mm
Dir  Spd
km/h
Gust
km/h
Spd
kts
Gust
kts
29/11:30pm 7.8 6.3 4.9 82 1.3 SW 2 4 1 2 1020.5 1021.1 0.0
29/11:00pm 7.7 5.4 5.0 83 1.2 SW 6 11 3 6 1020.3 1020.9 0.0
29/10:30pm 7.2 5.4 5.5 89 0.8 SW 4 9 2 5 1020.3 1020.9 0.0
29/10:00pm 8.2 5.9 4.6 78 1.6 SW 6 9 3 5 1020.2 1020.8 0.0
29/09:30pm 8.3 6.2 4.1 75 1.9 SW 4 9 2 5 1019.9 1020.4 0.0
29/09:00pm 9.1 6.4 3.5 68 2.5 SW 7 13 4 7 1019.4 1020.0 0.0
29/08:30pm 9.2 6.6 3.0 65 2.8 SW 6 13 3 7 1019.1 1019.7 0.0
29/08:00pm 9.3 6.6 2.6 63 2.9 SW 6 11 3 6 1019.0 1019.6 0.0
29/07:30pm 9.6 6.9 2.5 61 3.1 SW 6 24 3 13 1018.5 1019.0 0.0
29/07:00pm 9.7 7.0 2.6 61 3.1 SW 6 11 3 6 1018.4 1018.9 0.0
29/06:30pm 9.8 7.1 2.9 62 3.1 SW 6 13 3 7 1018.1 1018.6 0.0
29/06:00pm 9.4 6.7 2.7 63 3.0 SW 6 15 3 8 1018.0 1018.5 0.0
29/05:30pm 9.7 6.8 2.8 62 3.1 SW 7 19 4 10 1017.5 1018.1 0.0
29/05:00pm 10.2 7.5 2.8 60 3.3 SW 6 19 3 10 1017.3 1017.8 0.0
29/04:30pm 10.4 7.8 3.2 61 3.3 SW 6 9 3 5 1017.2 1017.7 0.0
29/04:00pm 11.2 9.4 3.5 59 3.5 W 2 13 1 7 1017.0 1017.5 0.0
29/03:30pm 11.7 9.8 3.0 55 4.0 WSW 2 9 1 5 1016.9 1017.4 0.0
29/03:00pm 12.0 9.7 2.5 52 4.3 SW 4 9 2 5 1016.9 1017.4 0.0
29/02:30pm 13.0 10.4 3.1 51 4.6 SW 6 15 3 8 1016.7 1017.2 0.0
29/02:00pm 12.7 9.9 3.1 52 4.4 WSW 7 20 4 11 1016.7 1017.2 0.0
29/01:30pm 12.2 10.0 3.4 55 4.1 WSW 4 24 2 13 1016.9 1017.4 0.0
29/01:00pm 12.5 9.8 2.9 52 4.4 SW 6 17 3 9 1017.1 1017.6 0.0
29/12:30pm 13.2 10.9 2.7 49 4.8 WSW 4 13 2 7 1017.9 1018.4 0.0
29/12:00pm 11.8 9.4 2.3 52 4.2 WSW 4 9 2 5 1018.1 1018.6 0.0
29/11:30am 11.8 9.7 2.0 51 4.4 WSW 2 13 1 7 1018.6 1019.1 0.0
29/11:00am 11.3 8.8 1.5 51 4.3 WSW 4 15 2 8 1018.8 1019.3 0.0
29/10:30am 10.5 7.0 1.3 53 4.0 NNW 9 22 5 12 1019.2 1019.8 0.0
29/10:00am 9.6 5.6 0.8 54 3.7 NW 11 20 6 11 1019.6 1020.1 0.0
29/09:30am 9.6 7.0 0.8 54 3.7 NNW 4 17 2 9 1019.6 1020.1 0.0
29/09:00am 9.1 6.4 0.0 53 3.8 WSW 4 11 2 6 1019.9 1020.4 0.0
29/08:30am 9.1 5.8 -1.0 49 4.1 NW 6 15 3 8 1019.6 1020.1 0.0
29/08:00am 8.6 5.2 -2.1 47 4.2 W 6 13 3 7 1019.8 1020.3 0.0
29/07:30am 8.4 5.7 -2.8 45 4.3 SW 2 9 1 5 1019.7 1020.2 0.0
29/07:00am 8.6 5.8 -3.3 43 4.5 WNW 2 9 1 5 1019.3 1019.9 0.0
29/06:30am 8.9 5.3 -3.6 41 4.7 NW 6 9 3 5 1019.1 1019.7 0.0
29/06:00am 9.2 6.3 -4.0 39 5.0 NNW 2 6 1 3 1019.0 1019.6 0.0
29/05:30am 9.5 6.2 -4.1 38 5.1 NNW 4 7 2 4 1018.9 1019.5 0.0
29/05:00am 9.1 6.1 -5.2 36 5.2 NNE 2 4 1 2 1019.0 1019.6 0.0
29/04:30am 8.4 5.8 -4.7 39 4.8 CALM 0 0 0 0 1018.8 1019.3 0.0
29/04:00am 8.6 6.0 -4.6 39 4.9 CALM 0 6 0 3 1018.7 1019.2 0.0
29/03:30am 7.8 4.9 -4.0 43 4.4 NE 2 6 1 3 1018.7 1019.2 0.0
29/03:00am 8.0 5.5 -4.4 41 4.6 CALM 0 4 0 2 1018.8 1019.3 0.0
29/02:30am 7.9 5.0 -3.9 43 4.4 SW 2 9 1 5 1019.3 1019.9 0.0
29/02:00am 7.8 5.3 -3.7 44 4.3 CALM 0 7 0 4 1019.3 1019.9 0.0
29/01:30am 7.8 5.4 -3.4 45 4.2 CALM 0 2 0 1 1019.4 1020.0 0.0
29/01:00am 7.0 4.3 -2.4 51 3.6 NE 2 4 1 2 1019.4 1020.0 0.0
29/12:30am 6.6 4.3 -2.0 54 3.3 CALM 0 0 0 0 1019.8 1020.3 0.0
29/12:00am 6.5 3.9 -1.4 57 3.1 NNE 2 4 1 2 1020.0 1020.5 0.0
 
Date/Time
EST
Temp
°C
App
Temp
°C
Dew
Point
°C
Rel
Hum
%
Delta-T
°C
Wind Press
QNH
hPa
Press
MSL
hPa
Rain since
9am
mm
Dir  Spd
km/h
Gust
km/h
Spd
kts
Gust
kts
28/11:30pm 6.7 4.5 -1.7 55 3.3 CALM 0 0 0 0 1020.2 1020.8 0.0
28/11:00pm 6.8 4.7 -1.1 57 3.1 CALM 0 6 0 3 1020.4 1021.0 0.0
28/10:30pm 7.1 4.9 -1.3 55 3.3 CALM 0 2 0 1 1020.2 1020.8 0.0
28/10:00pm 7.4 4.9 -1.0 55 3.3 SW 2 6 1 3 1020.4 1021.0 0.0
28/09:30pm 7.6 5.5 -1.1 54 3.5 CALM 0 4 0 2 1020.6 1021.2 0.0
28/09:00pm 7.7 5.7 0.2 59 3.1 CALM 0 2 0 1 1020.8 1021.4 0.0
28/08:30pm 7.9 5.9 -0.1 57 3.3 CALM 0 6 0 3 1020.8 1021.4 0.0
28/08:00pm 8.1 6.2 0.6 59 3.1 CALM 0 2 0 1 1020.9 1021.5 0.0
28/07:30pm 8.3 6.5 1.0 60 3.1 CALM 0 0 0 0 1020.8 1021.4 0.0
28/07:00pm 8.5 6.7 1.4 61 3.0 CALM 0 4 0 2 1020.6 1021.2 0.0
28/06:30pm 9.2 7.5 1.9 60 3.2 CALM 0 4 0 2 1020.3 1020.9 0.0
28/06:00pm 8.9 7.4 2.9 66 2.6 CALM 0 0 0 0 1020.1 1020.6 0.0
28/05:30pm 9.2 7.8 3.4 67 2.6 CALM 0 0 0 0 1019.9 1020.4 0.0
28/05:00pm 9.6 8.1 3.1 64 2.9 CALM 0 0 0 0 1019.7 1020.2 0.0
28/04:30pm 10.1 8.1 2.5 59 3.4 SSW 2 6 1 3 1019.4 1020.0 0.0
28/04:00pm 10.7 8.7 2.5 57 3.6 SW 2 4 1 2 1019.2 1019.8 0.0
28/03:30pm 11.7 9.0 2.5 53 4.1 SW 6 13 3 7 1019.1 1019.7 0.0
28/03:00pm 12.4 10.8 2.3 50 4.5 CALM 0 4 0 2 1019.0 1019.6 0.0
28/02:30pm 12.2 10.2 2.1 50 4.5 SW 2 9 1 5 1019.0 1019.6 0.0
28/02:00pm 12.9 10.8 1.9 47 4.9 WSW 2 6 1 3 1019.0 1019.6 0.0
28/01:30pm 12.1 9.9 1.1 47 4.8 SW 2 11 1 6 1019.2 1019.8 0.0
28/01:00pm 12.2 9.6 1.2 47 4.8 WSW 4 11 2 6 1019.4 1020.0 0.0
28/12:30pm 11.7 8.7 0.8 47 4.7 WSW 6 15 3 8 1019.7 1020.2 0.0
28/12:00pm 11.6 9.0 1.0 48 4.6 WNW 4 13 2 7 1020.2 1020.8 0.0
28/11:30am 10.2 7.3 1.3 54 3.8 SW 6 19 3 10 1020.5 1021.1 0.0
28/11:00am 10.6 7.8 2.2 56 3.7 SW 6 17 3 9 1020.9 1021.5 0.0
28/10:30am 9.6 6.8 1.8 58 3.4 SW 6 17 3 9 1021.2 1021.7 0.0
28/10:00am 9.1 6.3 1.8 60 3.1 SW 6 19 3 10 1021.2 1021.7 0.0
28/09:30am 8.4 5.3 1.3 61 3.0 SW 7 19 4 10 1020.7 1021.3 0.0
28/09:00am 7.7 4.7 1.1 63 2.8 SW 6 13 3 7 1020.8 1021.4 0.0
28/08:30am 7.3 3.7 0.5 62 2.8 WSW 9 24 5 13 1020.5 1021.1 0.0
28/08:00am 7.3 4.3 1.0 64 2.6 WNW 6 13 3 7 1020.5 1021.1 0.0
28/07:30am 7.0 4.0 0.7 64 2.6 W 6 15 3 8 1020.0 1020.5 0.0
28/07:00am 6.8 3.8 1.1 67 2.4 WSW 6 19 3 10 1019.7 1020.2 0.0
28/06:30am 6.9 4.3 1.0 66 2.4 SW 4 13 2 7 1019.7 1020.2 0.0
28/06:00am 6.9 3.7 1.0 66 2.4 SW 7 15 4 8 1019.3 1019.9 0.0
28/05:30am 6.6 3.6 1.1 68 2.3 SW 6 13 3 7 1019.3 1019.9 0.0
28/05:00am 6.7 3.5 1.0 67 2.4 SW 7 20 4 11 1019.1 1019.7 0.0
28/04:30am 6.9 4.0 1.2 67 2.4 SW 6 19 3 10 1019.0 1019.6 0.0
28/04:00am 6.7 4.1 1.2 68 2.3 WSW 4 15 2 8 1019.0 1019.6 0.0
28/03:30am 7.1 4.5 1.2 66 2.5 SSW 4 15 2 8 1018.8 1019.3 0.0
28/03:00am 6.7 4.0 0.6 65 2.5 SW 4 17 2 9 1019.0 1019.6 0.0
28/02:30am 6.5 4.2 0.6 66 2.4 SSW 2 13 1 7 1018.9 1019.5 0.0
28/02:00am 5.9 3.2 0.5 68 2.2 SW 4 13 2 7 1018.8 1019.3 0.0
28/01:30am 5.7 3.0 0.1 67 2.2 E 4 13 2 7 1018.6 1019.1 0.0
28/01:00am 5.4 2.7 0.2 69 2.1 N 4 7 2 4 1018.1 1018.6 0.0
28/12:30am 6.3 3.6 0.0 64 2.5 SE 4 7 2 4 1018.2 1018.7 0.0
28/12:00am 6.2 3.1 0.1 65 2.5 WSW 6 15 3 8 1018.0 1018.5 0.0
 
Date/Time
EST
Temp
°C
App
Temp
°C
Dew
Point
°C
Rel
Hum
%
Delta-T
°C
Wind Press
QNH
hPa
Press
MSL
hPa
Rain since
9am
mm
Dir  Spd
km/h
Gust
km/h
Spd
kts
Gust
kts
27/11:30pm 5.3 2.5 -0.1 68 2.1 SSW 4 9 2 5 1017.9 1018.4 0.0
27/11:00pm 5.6 2.9 0.4 69 2.1 WNW 4 11 2 6 1018.0 1018.5 0.0
27/10:30pm 5.0 2.8 0.9 75 1.7 W 2 6 1 3 1018.3 1018.8 0.0
27/10:00pm 4.4 2.5 0.6 76 1.5 CALM 0 6 0 3 1018.3 1018.8 0.0
27/09:30pm 5.2 3.0 1.0 74 1.7 SW 2 6 1 3 1018.2 1018.7 0.0
27/09:00pm 5.3 2.8 1.8 78 1.5 SW 4 13 2 7 1018.3 1018.8 0.0
27/08:30pm 5.3 3.8 2.8 84 1.1 CALM 0 2 0 1 1018.0 1018.5 0.0
27/08:00pm 5.4 2.7 2.6 82 1.2 SW 6 13 3 7 1017.4 1017.9 0.0
27/07:30pm 5.8 3.1 2.6 80 1.4 SW 6 19 3 10 1017.1 1017.6 0.0
27/07:00pm 6.0 3.3 2.5 78 1.5 SW 6 17 3 9 1016.4 1016.9 0.0
27/06:30pm 6.2 3.9 2.7 78 1.5 SW 4 9 2 5 1016.2 1016.6 0.0
27/06:00pm 6.3 4.0 2.9 79 1.5 SW 4 7 2 4 1015.3 1015.8 0.0
27/05:30pm 6.3 4.1 3.5 82 1.2 SW 4 6 2 3 1014.6 1015.0 0.0

Other Formats:

Comma delimited format used in spreadsheet applications
http://www.bom.gov.au/fwo/IDV60801/IDV60801.94914.axf

JavaScript Object Notation format (JSON) in row-major order
http://www.bom.gov.au/fwo/IDV60801/IDV60801.94914.json